Startpagina
METAR-TAF:

METAR-TAF

Vliegvelden :

Luchthaven Diori Hamani

Niamey, Niger

breedte: 13-29N, lengte: 002-10E, hoogte: 223 m

Actueel weer

Dit bericht is 1 uur en het 19 minuten geleden gemaakt, om 11:00 UTC
Wind 13 kt uit het oostnoordoosten, variërend tussen het noordnoordoosten en het oosten
Temperatuur 37°C
Vochtigheid 14%
Druk 1012 hPa
Zicht 10 km of meer
geen wolken onder 1500 m en geen cumulonimbus

METAR: DRRN 221100Z 06013KT 020V080 CAVOK 37/05 Q1012 NOSIG

Tijdstip: 13:19 (12:19 UTC)

Verwachting

Dit bericht is 1 uur en het 19 minuten geleden gemaakt, om 11:00 UTC
Verwachting geldig van 22 om 12 UTC tot 23 om 18 UTC
Wind 10 kt uit het oostnoordoosten
Zicht 10 km of meer
geen wolken onder 1500 m en geen cumulonimbus
Tijdelijke
van 22 om 17 UTC tot 22 om 20 UTC
Zicht: 4000 m
verspreid stof
Tijdelijke
van 23 om 05 UTC tot 23 om 08 UTC
Zicht: 4000 m
verspreid stof

TAF: DRRN 221100Z 2212/2318 06010KT CAVOK TEMPO 2217/2220 4000 DU TEMPO 2305/2308 4000 DU

Waarnemingen en weersverwachtingen van meer dan 4000 vliegvelden (METAR en TAF).

De beschikbare stations zijn de gele en rode punten op de kaart.

Ga met uw muis naar het station om de naam te zien.

Klik dan om waarnemingen en weersverwachtingen te zien.

kaart wijzigen: klik op de groene knoppen met een zwart kruis om in te zoomen, op de groene knop met een streepje om uit te zoomen of op de groene pijlen voor aangrenzende kaarten.


METAR-TAF: